sensor_id;sensor_type;location;lat;lon;timestamp;temperature;humidity
10828;DHT22;5467;59.334;13.512;2022-11-15T00:02:24;7.60;99.90
10828;DHT22;5467;59.334;13.512;2022-11-15T00:04:52;7.60;99.90
10828;DHT22;5467;59.334;13.512;2022-11-15T00:07:19;7.60;99.90
10828;DHT22;5467;59.334;13.512;2022-11-15T00:09:46;7.70;99.90
10828;DHT22;5467;59.334;13.512;2022-11-15T00:12:13;7.70;99.90
10828;DHT22;5467;59.334;13.512;2022-11-15T00:14:40;7.70;99.90
10828;DHT22;5467;59.334;13.512;2022-11-15T00:17:07;7.70;99.90
10828;DHT22;5467;59.334;13.512;2022-11-15T00:19:33;7.60;99.90
10828;DHT22;5467;59.334;13.512;2022-11-15T00:22:02;7.60;99.90
10828;DHT22;5467;59.334;13.512;2022-11-15T00:24:29;7.50;99.90
10828;DHT22;5467;59.334;13.512;2022-11-15T00:26:56;7.50;99.90
10828;DHT22;5467;59.334;13.512;2022-11-15T00:29:23;7.40;99.90
10828;DHT22;5467;59.334;13.512;2022-11-15T00:31:50;7.40;99.90
10828;DHT22;5467;59.334;13.512;2022-11-15T00:34:16;7.40;99.90
10828;DHT22;5467;59.334;13.512;2022-11-15T00:36:43;7.40;99.90
10828;DHT22;5467;59.334;13.512;2022-11-15T00:39:12;7.40;99.90
10828;DHT22;5467;59.334;13.512;2022-11-15T00:41:39;7.40;99.90
10828;DHT22;5467;59.334;13.512;2022-11-15T00:44:06;7.30;99.90
10828;DHT22;5467;59.334;13.512;2022-11-15T00:46:33;7.30;99.90
10828;DHT22;5467;59.334;13.512;2022-11-15T00:49:00;7.30;99.90
10828;DHT22;5467;59.334;13.512;2022-11-15T00:51:26;7.30;99.90
10828;DHT22;5467;59.334;13.512;2022-11-15T00:53:54;7.30;99.90
10828;DHT22;5467;59.334;13.512;2022-11-15T00:56:22;7.30;99.90
10828;DHT22;5467;59.334;13.512;2022-11-15T00:58:49;7.40;99.90
10828;DHT22;5467;59.334;13.512;2022-11-15T01:01:16;7.40;99.90
10828;DHT22;5467;59.334;13.512;2022-11-15T01:03:43;7.50;99.90
10828;DHT22;5467;59.334;13.512;2022-11-15T01:06:10;7.40;99.90
10828;DHT22;5467;59.334;13.512;2022-11-15T01:08:38;7.50;99.90
10828;DHT22;5467;59.334;13.512;2022-11-15T01:11:06;7.50;99.90
10828;DHT22;5467;59.334;13.512;2022-11-15T01:13:36;7.50;99.90
10828;DHT22;5467;59.334;13.512;2022-11-15T01:16:07;7.40;99.90
10828;DHT22;5467;59.334;13.512;2022-11-15T01:18:35;7.40;99.90
10828;DHT22;5467;59.334;13.512;2022-11-15T01:21:05;7.30;99.90
10828;DHT22;5467;59.334;13.512;2022-11-15T01:23:32;7.30;99.90
10828;DHT22;5467;59.334;13.512;2022-11-15T01:25:59;7.30;99.90
10828;DHT22;5467;59.334;13.512;2022-11-15T01:28:30;7.20;99.90
10828;DHT22;5467;59.334;13.512;2022-11-15T01:30:59;7.10;99.90
10828;DHT22;5467;59.334;13.512;2022-11-15T01:33:26;7.10;99.90
10828;DHT22;5467;59.334;13.512;2022-11-15T01:35:53;7.10;99.90
10828;DHT22;5467;59.334;13.512;2022-11-15T01:38:20;7.10;99.90
10828;DHT22;5467;59.334;13.512;2022-11-15T01:40:48;7.30;99.90
10828;DHT22;5467;59.334;13.512;2022-11-15T01:43:19;7.20;99.90
10828;DHT22;5467;59.334;13.512;2022-11-15T01:45:51;7.20;99.90
10828;DHT22;5467;59.334;13.512;2022-11-15T01:48:21;7.30;99.90
10828;DHT22;5467;59.334;13.512;2022-11-15T01:50:49;7.40;99.90
10828;DHT22;5467;59.334;13.512;2022-11-15T01:53:17;7.30;99.90
10828;DHT22;5467;59.334;13.512;2022-11-15T01:55:46;7.30;99.90
10828;DHT22;5467;59.334;13.512;2022-11-15T01:58:13;7.20;99.90
10828;DHT22;5467;59.334;13.512;2022-11-15T02:00:40;7.10;99.90
10828;DHT22;5467;59.334;13.512;2022-11-15T02:03:07;7.00;99.90
10828;DHT22;5467;59.334;13.512;2022-11-15T02:05:36;6.90;99.90
10828;DHT22;5467;59.334;13.512;2022-11-15T02:08:04;7.10;99.90
10828;DHT22;5467;59.334;13.512;2022-11-15T02:10:32;7.10;99.90
10828;DHT22;5467;59.334;13.512;2022-11-15T02:12:59;7.10;99.90
10828;DHT22;5467;59.334;13.512;2022-11-15T02:15:31;7.10;99.90
10828;DHT22;5467;59.334;13.512;2022-11-15T02:18:09;7.10;99.90
10828;DHT22;5467;59.334;13.512;2022-11-15T02:20:56;7.20;99.90
10828;DHT22;5467;59.334;13.512;2022-11-15T02:23:58;7.30;99.90
10828;DHT22;5467;59.334;13.512;2022-11-15T02:32:58;7.10;99.90
10828;DHT22;5467;59.334;13.512;2022-11-15T02:35:33;7.00;99.90
10828;DHT22;5467;59.334;13.512;2022-11-15T02:38:10;7.10;99.90
10828;DHT22;5467;59.334;13.512;2022-11-15T02:40:44;7.10;99.90
10828;DHT22;5467;59.334;13.512;2022-11-15T02:43:17;7.10;99.90
10828;DHT22;5467;59.334;13.512;2022-11-15T02:46:08;7.00;99.90
10828;DHT22;5467;59.334;13.512;2022-11-15T02:48:39;7.00;99.90
10828;DHT22;5467;59.334;13.512;2022-11-15T02:51:06;7.00;99.90
10828;DHT22;5467;59.334;13.512;2022-11-15T02:53:34;6.90;99.90
10828;DHT22;5467;59.334;13.512;2022-11-15T02:56:01;7.10;99.90
10828;DHT22;5467;59.334;13.512;2022-11-15T02:58:58;6.90;99.90
10828;DHT22;5467;59.334;13.512;2022-11-15T03:01:38;6.80;99.90
10828;DHT22;5467;59.334;13.512;2022-11-15T03:04:15;6.70;99.90
10828;DHT22;5467;59.334;13.512;2022-11-15T03:06:49;6.80;99.90
10828;DHT22;5467;59.334;13.512;2022-11-15T03:09:25;6.70;99.90
10828;DHT22;5467;59.334;13.512;2022-11-15T03:11:59;6.70;99.90
10828;DHT22;5467;59.334;13.512;2022-11-15T03:14:33;6.60;99.90
10828;DHT22;5467;59.334;13.512;2022-11-15T03:17:05;6.50;99.90
10828;DHT22;5467;59.334;13.512;2022-11-15T03:19:43;6.50;99.90
10828;DHT22;5467;59.334;13.512;2022-11-15T03:22:14;6.50;99.90
10828;DHT22;5467;59.334;13.512;2022-11-15T03:24:44;6.40;99.90
10828;DHT22;5467;59.334;13.512;2022-11-15T03:27:13;6.30;99.90
10828;DHT22;5467;59.334;13.512;2022-11-15T03:29:45;6.30;99.90
10828;DHT22;5467;59.334;13.512;2022-11-15T03:32:15;6.30;99.90
10828;DHT22;5467;59.334;13.512;2022-11-15T03:34:49;6.30;99.90
10828;DHT22;5467;59.334;13.512;2022-11-15T03:37:18;6.20;99.90
10828;DHT22;5467;59.334;13.512;2022-11-15T03:39:47;6.20;99.90
10828;DHT22;5467;59.334;13.512;2022-11-15T03:42:21;6.10;99.90
10828;DHT22;5467;59.334;13.512;2022-11-15T03:44:55;6.20;99.90
10828;DHT22;5467;59.334;13.512;2022-11-15T03:47:27;6.20;99.90
10828;DHT22;5467;59.334;13.512;2022-11-15T03:50:01;6.20;99.90
10828;DHT22;5467;59.334;13.512;2022-11-15T03:52:32;6.20;99.90
10828;DHT22;5467;59.334;13.512;2022-11-15T03:55:01;6.10;99.90
10828;DHT22;5467;59.334;13.512;2022-11-15T03:57:29;6.10;99.90
10828;DHT22;5467;59.334;13.512;2022-11-15T03:59:56;6.10;99.90
10828;DHT22;5467;59.334;13.512;2022-11-15T04:02:23;6.20;99.90
10828;DHT22;5467;59.334;13.512;2022-11-15T04:04:50;6.10;99.90
10828;DHT22;5467;59.334;13.512;2022-11-15T04:07:18;6.20;99.90
10828;DHT22;5467;59.334;13.512;2022-11-15T04:09:45;6.10;99.90
10828;DHT22;5467;59.334;13.512;2022-11-15T04:12:31;6.10;99.90
10828;DHT22;5467;59.334;13.512;2022-11-15T04:15:00;6.10;99.90
10828;DHT22;5467;59.334;13.512;2022-11-15T04:17:38;6.20;99.90
10828;DHT22;5467;59.334;13.512;2022-11-15T04:20:10;6.10;99.90
10828;DHT22;5467;59.334;13.512;2022-11-15T04:22:57;6.10;99.90
10828;DHT22;5467;59.334;13.512;2022-11-15T04:25:42;6.10;99.90
10828;DHT22;5467;59.334;13.512;2022-11-15T04:28:09;6.00;99.90
10828;DHT22;5467;59.334;13.512;2022-11-15T04:30:37;6.00;99.90
10828;DHT22;5467;59.334;13.512;2022-11-15T04:33:04;6.00;99.90
10828;DHT22;5467;59.334;13.512;2022-11-15T04:35:31;6.00;99.90
10828;DHT22;5467;59.334;13.512;2022-11-15T04:38:00;5.90;99.90
10828;DHT22;5467;59.334;13.512;2022-11-15T04:40:26;5.90;99.90
10828;DHT22;5467;59.334;13.512;2022-11-15T04:42:53;5.90;99.90
10828;DHT22;5467;59.334;13.512;2022-11-15T04:45:20;5.80;99.90
10828;DHT22;5467;59.334;13.512;2022-11-15T04:47:47;5.90;99.90
10828;DHT22;5467;59.334;13.512;2022-11-15T04:50:15;5.90;99.90
10828;DHT22;5467;59.334;13.512;2022-11-15T04:52:43;5.90;99.90
10828;DHT22;5467;59.334;13.512;2022-11-15T04:55:12;5.80;99.90
10828;DHT22;5467;59.334;13.512;2022-11-15T04:57:39;5.90;99.90
10828;DHT22;5467;59.334;13.512;2022-11-15T05:00:08;5.90;99.90
10828;DHT22;5467;59.334;13.512;2022-11-15T05:02:35;5.80;99.90
10828;DHT22;5467;59.334;13.512;2022-11-15T05:05:20;5.90;99.90
10828;DHT22;5467;59.334;13.512;2022-11-15T05:07:47;5.90;99.90
10828;DHT22;5467;59.334;13.512;2022-11-15T05:10:16;5.90;99.90
10828;DHT22;5467;59.334;13.512;2022-11-15T05:12:43;5.90;99.90
10828;DHT22;5467;59.334;13.512;2022-11-15T05:15:10;5.90;99.90
10828;DHT22;5467;59.334;13.512;2022-11-15T05:17:37;5.90;99.90
10828;DHT22;5467;59.334;13.512;2022-11-15T05:20:04;5.80;99.90
10828;DHT22;5467;59.334;13.512;2022-11-15T05:22:31;5.80;99.90
10828;DHT22;5467;59.334;13.512;2022-11-15T05:24:58;5.60;99.90
10828;DHT22;5467;59.334;13.512;2022-11-15T05:27:27;5.60;99.90
10828;DHT22;5467;59.334;13.512;2022-11-15T05:29:54;5.60;99.90
10828;DHT22;5467;59.334;13.512;2022-11-15T05:32:21;5.60;99.90
10828;DHT22;5467;59.334;13.512;2022-11-15T05:34:48;5.70;99.90
10828;DHT22;5467;59.334;13.512;2022-11-15T05:37:16;5.60;99.90
10828;DHT22;5467;59.334;13.512;2022-11-15T05:39:43;5.60;99.90
10828;DHT22;5467;59.334;13.512;2022-11-15T05:42:12;5.50;99.90
10828;DHT22;5467;59.334;13.512;2022-11-15T05:44:43;5.50;99.90
10828;DHT22;5467;59.334;13.512;2022-11-15T05:47:15;5.50;99.90
10828;DHT22;5467;59.334;13.512;2022-11-15T05:49:44;5.50;99.90
10828;DHT22;5467;59.334;13.512;2022-11-15T05:52:15;5.40;99.90
10828;DHT22;5467;59.334;13.512;2022-11-15T05:54:43;5.40;99.90
10828;DHT22;5467;59.334;13.512;2022-11-15T05:57:10;5.40;99.90
10828;DHT22;5467;59.334;13.512;2022-11-15T05:59:38;5.40;99.90
10828;DHT22;5467;59.334;13.512;2022-11-15T06:02:07;5.40;99.90
10828;DHT22;5467;59.334;13.512;2022-11-15T06:04:35;5.30;99.90
10828;DHT22;5467;59.334;13.512;2022-11-15T06:07:02;5.20;99.90
10828;DHT22;5467;59.334;13.512;2022-11-15T06:09:29;5.20;99.90
10828;DHT22;5467;59.334;13.512;2022-11-15T06:11:56;5.30;99.90
10828;DHT22;5467;59.334;13.512;2022-11-15T06:14:23;5.30;99.90
10828;DHT22;5467;59.334;13.512;2022-11-15T06:16:50;5.30;99.90
10828;DHT22;5467;59.334;13.512;2022-11-15T06:19:18;5.30;99.90
10828;DHT22;5467;59.334;13.512;2022-11-15T06:21:45;5.30;99.90
10828;DHT22;5467;59.334;13.512;2022-11-15T06:24:12;5.40;99.90
10828;DHT22;5467;59.334;13.512;2022-11-15T06:26:39;5.30;99.90
10828;DHT22;5467;59.334;13.512;2022-11-15T06:29:06;5.30;99.90
10828;DHT22;5467;59.334;13.512;2022-11-15T06:31:33;5.30;99.90
10828;DHT22;5467;59.334;13.512;2022-11-15T06:34:01;5.30;99.90
10828;DHT22;5467;59.334;13.512;2022-11-15T06:36:29;5.30;99.90
10828;DHT22;5467;59.334;13.512;2022-11-15T06:38:56;5.30;99.90
10828;DHT22;5467;59.334;13.512;2022-11-15T06:41:23;5.30;99.90
10828;DHT22;5467;59.334;13.512;2022-11-15T06:43:50;5.30;99.90
10828;DHT22;5467;59.334;13.512;2022-11-15T06:46:17;5.30;99.90
10828;DHT22;5467;59.334;13.512;2022-11-15T06:48:44;5.40;99.90
10828;DHT22;5467;59.334;13.512;2022-11-15T06:51:11;5.30;99.90
10828;DHT22;5467;59.334;13.512;2022-11-15T06:53:39;5.30;99.90
10828;DHT22;5467;59.334;13.512;2022-11-15T06:56:07;5.40;99.90
10828;DHT22;5467;59.334;13.512;2022-11-15T06:58:34;5.40;99.90
10828;DHT22;5467;59.334;13.512;2022-11-15T07:01:03;5.40;99.90
10828;DHT22;5467;59.334;13.512;2022-11-15T07:03:31;5.30;99.90
10828;DHT22;5467;59.334;13.512;2022-11-15T07:05:58;5.30;99.90
10828;DHT22;5467;59.334;13.512;2022-11-15T07:08:26;5.30;99.90
10828;DHT22;5467;59.334;13.512;2022-11-15T07:10:58;5.30;99.90
10828;DHT22;5467;59.334;13.512;2022-11-15T07:13:25;5.30;99.90
10828;DHT22;5467;59.334;13.512;2022-11-15T07:15:52;5.30;99.90
10828;DHT22;5467;59.334;13.512;2022-11-15T07:18:19;5.30;99.90
10828;DHT22;5467;59.334;13.512;2022-11-15T07:20:46;5.20;99.90
10828;DHT22;5467;59.334;13.512;2022-11-15T07:23:13;5.30;99.90
10828;DHT22;5467;59.334;13.512;2022-11-15T07:25:40;5.40;99.90
10828;DHT22;5467;59.334;13.512;2022-11-15T07:28:09;5.40;99.90
10828;DHT22;5467;59.334;13.512;2022-11-15T07:30:36;5.30;99.90
10828;DHT22;5467;59.334;13.512;2022-11-15T07:33:03;5.30;99.90
10828;DHT22;5467;59.334;13.512;2022-11-15T07:35:30;5.40;99.90
10828;DHT22;5467;59.334;13.512;2022-11-15T07:37:57;5.40;99.90
10828;DHT22;5467;59.334;13.512;2022-11-15T07:40:26;5.30;99.90
10828;DHT22;5467;59.334;13.512;2022-11-15T07:42:58;5.40;99.90
10828;DHT22;5467;59.334;13.512;2022-11-15T07:45:26;5.40;99.90
10828;DHT22;5467;59.334;13.512;2022-11-15T07:47:53;5.40;99.90
10828;DHT22;5467;59.334;13.512;2022-11-15T07:50:22;5.40;99.90
10828;DHT22;5467;59.334;13.512;2022-11-15T07:52:54;5.50;99.90
10828;DHT22;5467;59.334;13.512;2022-11-15T07:55:22;5.50;99.90
10828;DHT22;5467;59.334;13.512;2022-11-15T07:57:49;5.50;99.90
10828;DHT22;5467;59.334;13.512;2022-11-15T08:00:17;5.50;99.90
10828;DHT22;5467;59.334;13.512;2022-11-15T08:02:45;5.40;99.90
10828;DHT22;5467;59.334;13.512;2022-11-15T08:05:12;5.60;99.90
10828;DHT22;5467;59.334;13.512;2022-11-15T08:07:39;5.50;99.90
10828;DHT22;5467;59.334;13.512;2022-11-15T08:10:07;5.50;99.90
10828;DHT22;5467;59.334;13.512;2022-11-15T08:12:35;5.60;99.90
10828;DHT22;5467;59.334;13.512;2022-11-15T08:15:02;5.50;99.90
10828;DHT22;5467;59.334;13.512;2022-11-15T08:17:28;5.60;99.90
10828;DHT22;5467;59.334;13.512;2022-11-15T08:19:59;5.60;99.90
10828;DHT22;5467;59.334;13.512;2022-11-15T08:22:26;5.60;99.90
10828;DHT22;5467;59.334;13.512;2022-11-15T08:24:53;5.60;99.90
10828;DHT22;5467;59.334;13.512;2022-11-15T08:27:20;5.60;99.90
10828;DHT22;5467;59.334;13.512;2022-11-15T08:29:48;5.60;99.90
10828;DHT22;5467;59.334;13.512;2022-11-15T08:32:16;5.60;99.90
10828;DHT22;5467;59.334;13.512;2022-11-15T08:34:43;5.60;99.90
10828;DHT22;5467;59.334;13.512;2022-11-15T08:37:11;5.60;99.90
10828;DHT22;5467;59.334;13.512;2022-11-15T08:39:38;5.60;99.90
10828;DHT22;5467;59.334;13.512;2022-11-15T08:42:05;5.60;99.90
10828;DHT22;5467;59.334;13.512;2022-11-15T08:44:32;5.60;99.90
10828;DHT22;5467;59.334;13.512;2022-11-15T08:46:59;5.70;99.90
10828;DHT22;5467;59.334;13.512;2022-11-15T08:49:26;5.70;99.90
10828;DHT22;5467;59.334;13.512;2022-11-15T08:51:53;5.70;99.90
10828;DHT22;5467;59.334;13.512;2022-11-15T08:54:21;5.70;99.90
10828;DHT22;5467;59.334;13.512;2022-11-15T08:56:48;5.80;99.90
10828;DHT22;5467;59.334;13.512;2022-11-15T08:59:15;5.70;99.90
10828;DHT22;5467;59.334;13.512;2022-11-15T09:01:42;5.70;99.90
10828;DHT22;5467;59.334;13.512;2022-11-15T09:04:09;5.70;99.90
10828;DHT22;5467;59.334;13.512;2022-11-15T09:06:36;5.80;99.90
10828;DHT22;5467;59.334;13.512;2022-11-15T09:09:03;5.80;99.90
10828;DHT22;5467;59.334;13.512;2022-11-15T09:11:32;5.90;99.90
10828;DHT22;5467;59.334;13.512;2022-11-15T09:13:59;5.80;99.90
10828;DHT22;5467;59.334;13.512;2022-11-15T09:16:26;5.80;99.90
10828;DHT22;5467;59.334;13.512;2022-11-15T09:18:53;5.90;99.90
10828;DHT22;5467;59.334;13.512;2022-11-15T09:21:20;5.90;99.90
10828;DHT22;5467;59.334;13.512;2022-11-15T09:23:49;5.90;99.90
10828;DHT22;5467;59.334;13.512;2022-11-15T09:26:16;5.90;99.90
10828;DHT22;5467;59.334;13.512;2022-11-15T09:28:44;6.00;99.90
10828;DHT22;5467;59.334;13.512;2022-11-15T09:31:11;6.00;99.90
10828;DHT22;5467;59.334;13.512;2022-11-15T09:33:38;6.00;99.90
10828;DHT22;5467;59.334;13.512;2022-11-15T09:36:07;6.00;99.90
10828;DHT22;5467;59.334;13.512;2022-11-15T09:38:34;6.00;99.90
10828;DHT22;5467;59.334;13.512;2022-11-15T09:41:30;6.00;99.90
10828;DHT22;5467;59.334;13.512;2022-11-15T09:44:11;6.00;99.90
10828;DHT22;5467;59.334;13.512;2022-11-15T09:46:49;6.10;99.90
10828;DHT22;5467;59.334;13.512;2022-11-15T09:49:19;6.20;99.90
10828;DHT22;5467;59.334;13.512;2022-11-15T09:51:49;6.10;99.90
10828;DHT22;5467;59.334;13.512;2022-11-15T09:54:24;6.10;99.90
10828;DHT22;5467;59.334;13.512;2022-11-15T09:56:53;6.10;99.90
10828;DHT22;5467;59.334;13.512;2022-11-15T09:59:41;6.10;99.90
10828;DHT22;5467;59.334;13.512;2022-11-15T10:02:22;6.10;99.90
10828;DHT22;5467;59.334;13.512;2022-11-15T10:04:51;6.20;99.90
10828;DHT22;5467;59.334;13.512;2022-11-15T10:07:21;6.20;99.90
10828;DHT22;5467;59.334;13.512;2022-11-15T10:09:55;6.20;99.90
10828;DHT22;5467;59.334;13.512;2022-11-15T10:12:25;6.10;99.90
10828;DHT22;5467;59.334;13.512;2022-11-15T10:15:00;6.20;99.90
10828;DHT22;5467;59.334;13.512;2022-11-15T10:17:51;6.10;99.90
10828;DHT22;5467;59.334;13.512;2022-11-15T10:20:22;6.00;99.90
10828;DHT22;5467;59.334;13.512;2022-11-15T10:22:51;6.00;99.90
10828;DHT22;5467;59.334;13.512;2022-11-15T10:25:21;6.00;99.90
10828;DHT22;5467;59.334;13.512;2022-11-15T10:27:57;6.00;99.90
10828;DHT22;5467;59.334;13.512;2022-11-15T10:30:32;6.10;99.90
10828;DHT22;5467;59.334;13.512;2022-11-15T10:33:11;6.10;99.90
10828;DHT22;5467;59.334;13.512;2022-11-15T10:35:39;6.00;99.90
10828;DHT22;5467;59.334;13.512;2022-11-15T10:38:09;6.00;99.90
10828;DHT22;5467;59.334;13.512;2022-11-15T10:40:38;5.80;99.90
10828;DHT22;5467;59.334;13.512;2022-11-15T10:43:15;5.70;99.90
10828;DHT22;5467;59.334;13.512;2022-11-15T10:45:44;5.70;99.90
10828;DHT22;5467;59.334;13.512;2022-11-15T10:48:24;5.60;99.90
10828;DHT22;5467;59.334;13.512;2022-11-15T10:50:52;5.60;99.90
10828;DHT22;5467;59.334;13.512;2022-11-15T10:53:30;5.60;99.90
10828;DHT22;5467;59.334;13.512;2022-11-15T10:56:02;5.60;99.90
10828;DHT22;5467;59.334;13.512;2022-11-15T10:58:35;5.50;99.90
10828;DHT22;5467;59.334;13.512;2022-11-15T11:01:13;5.50;99.90
10828;DHT22;5467;59.334;13.512;2022-11-15T11:03:41;5.50;99.90
10828;DHT22;5467;59.334;13.512;2022-11-15T11:06:11;5.50;99.90
10828;DHT22;5467;59.334;13.512;2022-11-15T11:08:39;5.60;99.90
10828;DHT22;5467;59.334;13.512;2022-11-15T11:11:07;5.60;99.90
10828;DHT22;5467;59.334;13.512;2022-11-15T11:13:36;5.70;99.90
10828;DHT22;5467;59.334;13.512;2022-11-15T11:21:57;5.70;99.90
10828;DHT22;5467;59.334;13.512;2022-11-15T11:24:34;5.80;99.90
10828;DHT22;5467;59.334;13.512;2022-11-15T11:27:20;5.80;99.90
10828;DHT22;5467;59.334;13.512;2022-11-15T11:30:02;5.80;99.90
10828;DHT22;5467;59.334;13.512;2022-11-15T11:32:40;5.90;99.90
10828;DHT22;5467;59.334;13.512;2022-11-15T11:35:18;5.80;99.90
10828;DHT22;5467;59.334;13.512;2022-11-15T11:37:49;5.80;99.90
10828;DHT22;5467;59.334;13.512;2022-11-15T11:40:28;5.80;99.90
10828;DHT22;5467;59.334;13.512;2022-11-15T11:43:00;5.90;99.90
10828;DHT22;5467;59.334;13.512;2022-11-15T11:46:01;5.90;99.90
10828;DHT22;5467;59.334;13.512;2022-11-15T11:48:40;6.00;99.90
10828;DHT22;5467;59.334;13.512;2022-11-15T11:51:15;5.90;99.90
10828;DHT22;5467;59.334;13.512;2022-11-15T11:53:47;5.90;99.90
10828;DHT22;5467;59.334;13.512;2022-11-15T11:56:22;5.90;99.90
10828;DHT22;5467;59.334;13.512;2022-11-15T11:58:50;5.80;99.90
10828;DHT22;5467;59.334;13.512;2022-11-15T12:01:23;5.90;99.90
10828;DHT22;5467;59.334;13.512;2022-11-15T12:03:55;5.90;99.90
10828;DHT22;5467;59.334;13.512;2022-11-15T12:06:30;5.90;99.90
10828;DHT22;5467;59.334;13.512;2022-11-15T12:09:02;5.90;99.90
10828;DHT22;5467;59.334;13.512;2022-11-15T12:11:41;5.80;99.90
10828;DHT22;5467;59.334;13.512;2022-11-15T12:14:16;5.80;99.90
10828;DHT22;5467;59.334;13.512;2022-11-15T12:16:47;5.80;99.90
10828;DHT22;5467;59.334;13.512;2022-11-15T12:19:14;5.80;99.90
10828;DHT22;5467;59.334;13.512;2022-11-15T12:21:46;5.80;99.90
10828;DHT22;5467;59.334;13.512;2022-11-15T12:24:18;5.70;99.90
10828;DHT22;5467;59.334;13.512;2022-11-15T12:26:50;5.80;99.90
10828;DHT22;5467;59.334;13.512;2022-11-15T12:29:23;5.80;99.90
10828;DHT22;5467;59.334;13.512;2022-11-15T12:31:53;5.80;99.90
10828;DHT22;5467;59.334;13.512;2022-11-15T12:34:49;5.80;99.90
10828;DHT22;5467;59.334;13.512;2022-11-15T12:37:34;5.80;99.90
10828;DHT22;5467;59.334;13.512;2022-11-15T12:40:23;5.80;99.90
10828;DHT22;5467;59.334;13.512;2022-11-15T12:43:02;5.80;99.90
10828;DHT22;5467;59.334;13.512;2022-11-15T12:45:32;5.80;99.90
10828;DHT22;5467;59.334;13.512;2022-11-15T12:52:03;5.80;99.90
10828;DHT22;5467;59.334;13.512;2022-11-15T12:54:53;5.80;99.90
10828;DHT22;5467;59.334;13.512;2022-11-15T12:57:41;5.90;99.90
10828;DHT22;5467;59.334;13.512;2022-11-15T13:03:34;5.90;99.90
10828;DHT22;5467;59.334;13.512;2022-11-15T13:06:09;5.90;99.90
10828;DHT22;5467;59.334;13.512;2022-11-15T13:08:56;5.80;99.90
10828;DHT22;5467;59.334;13.512;2022-11-15T13:11:44;5.80;99.90
10828;DHT22;5467;59.334;13.512;2022-11-15T13:14:47;5.90;99.90
10828;DHT22;5467;59.334;13.512;2022-11-15T13:17:30;5.90;99.90
10828;DHT22;5467;59.334;13.512;2022-11-15T13:20:02;5.90;99.90
10828;DHT22;5467;59.334;13.512;2022-11-15T13:22:38;5.90;99.90
10828;DHT22;5467;59.334;13.512;2022-11-15T13:25:52;5.90;99.90
10828;DHT22;5467;59.334;13.512;2022-11-15T13:28:29;5.80;99.90
10828;DHT22;5467;59.334;13.512;2022-11-15T13:31:00;5.90;99.90
10828;DHT22;5467;59.334;13.512;2022-11-15T13:33:30;5.90;99.90
10828;DHT22;5467;59.334;13.512;2022-11-15T13:36:00;5.90;99.90
10828;DHT22;5467;59.334;13.512;2022-11-15T13:38:29;5.80;99.90
10828;DHT22;5467;59.334;13.512;2022-11-15T13:40:58;5.80;99.90
10828;DHT22;5467;59.334;13.512;2022-11-15T13:43:35;5.80;99.90
10828;DHT22;5467;59.334;13.512;2022-11-15T13:46:12;5.80;99.90
10828;DHT22;5467;59.334;13.512;2022-11-15T13:48:40;5.80;99.90
10828;DHT22;5467;59.334;13.512;2022-11-15T13:51:13;5.70;99.90
10828;DHT22;5467;59.334;13.512;2022-11-15T13:53:47;5.70;99.90
10828;DHT22;5467;59.334;13.512;2022-11-15T13:56:16;5.70;99.90
10828;DHT22;5467;59.334;13.512;2022-11-15T13:58:48;5.70;99.90
10828;DHT22;5467;59.334;13.512;2022-11-15T14:01:18;5.70;99.90
10828;DHT22;5467;59.334;13.512;2022-11-15T14:03:57;5.70;99.90
10828;DHT22;5467;59.334;13.512;2022-11-15T14:06:26;5.70;99.90
10828;DHT22;5467;59.334;13.512;2022-11-15T14:09:32;5.70;99.90
10828;DHT22;5467;59.334;13.512;2022-11-15T14:12:00;5.70;99.90
10828;DHT22;5467;59.334;13.512;2022-11-15T14:14:31;5.70;99.90
10828;DHT22;5467;59.334;13.512;2022-11-15T14:17:00;5.70;99.90
10828;DHT22;5467;59.334;13.512;2022-11-15T14:19:35;5.80;99.90
10828;DHT22;5467;59.334;13.512;2022-11-15T14:22:14;5.80;99.90
10828;DHT22;5467;59.334;13.512;2022-11-15T14:24:44;5.70;99.90
10828;DHT22;5467;59.334;13.512;2022-11-15T14:27:19;5.70;99.90
10828;DHT22;5467;59.334;13.512;2022-11-15T14:29:48;5.60;99.90
10828;DHT22;5467;59.334;13.512;2022-11-15T14:32:17;5.60;99.90
10828;DHT22;5467;59.334;13.512;2022-11-15T14:34:45;5.60;99.90
10828;DHT22;5467;59.334;13.512;2022-11-15T14:37:23;5.60;99.90
10828;DHT22;5467;59.334;13.512;2022-11-15T14:39:51;5.60;99.90
10828;DHT22;5467;59.334;13.512;2022-11-15T14:42:19;5.60;99.90
10828;DHT22;5467;59.334;13.512;2022-11-15T14:44:48;5.60;99.90
10828;DHT22;5467;59.334;13.512;2022-11-15T14:47:15;5.60;99.90
10828;DHT22;5467;59.334;13.512;2022-11-15T14:49:42;5.60;99.90
10828;DHT22;5467;59.334;13.512;2022-11-15T14:52:27;5.50;99.90
10828;DHT22;5467;59.334;13.512;2022-11-15T14:54:54;5.60;99.90
10828;DHT22;5467;59.334;13.512;2022-11-15T14:57:21;5.60;99.90
10828;DHT22;5467;59.334;13.512;2022-11-15T14:59:50;5.60;99.90
10828;DHT22;5467;59.334;13.512;2022-11-15T15:02:19;5.60;99.90
10828;DHT22;5467;59.334;13.512;2022-11-15T15:04:48;5.70;99.90
10828;DHT22;5467;59.334;13.512;2022-11-15T15:07:16;5.70;99.90
10828;DHT22;5467;59.334;13.512;2022-11-15T15:09:44;5.70;99.90
10828;DHT22;5467;59.334;13.512;2022-11-15T15:12:17;5.70;99.90
10828;DHT22;5467;59.334;13.512;2022-11-15T15:14:45;5.60;99.90
10828;DHT22;5467;59.334;13.512;2022-11-15T15:17:14;5.60;99.90
10828;DHT22;5467;59.334;13.512;2022-11-15T15:19:41;5.70;99.90
10828;DHT22;5467;59.334;13.512;2022-11-15T15:22:12;5.70;99.90
10828;DHT22;5467;59.334;13.512;2022-11-15T15:24:41;5.70;99.90
10828;DHT22;5467;59.334;13.512;2022-11-15T15:27:08;5.70;99.90
10828;DHT22;5467;59.334;13.512;2022-11-15T15:29:35;5.70;99.90
10828;DHT22;5467;59.334;13.512;2022-11-15T15:32:02;5.70;99.90
10828;DHT22;5467;59.334;13.512;2022-11-15T15:34:30;5.70;99.90
10828;DHT22;5467;59.334;13.512;2022-11-15T15:37:08;5.70;99.90
10828;DHT22;5467;59.334;13.512;2022-11-15T15:39:36;5.70;99.90
10828;DHT22;5467;59.334;13.512;2022-11-15T15:42:03;5.70;99.90
10828;DHT22;5467;59.334;13.512;2022-11-15T15:44:30;5.60;99.90
10828;DHT22;5467;59.334;13.512;2022-11-15T15:46:57;5.60;99.90
10828;DHT22;5467;59.334;13.512;2022-11-15T15:49:24;5.70;99.90
10828;DHT22;5467;59.334;13.512;2022-11-15T15:51:53;5.70;99.90
10828;DHT22;5467;59.334;13.512;2022-11-15T15:54:20;5.80;99.90
10828;DHT22;5467;59.334;13.512;2022-11-15T15:56:47;5.70;99.90
10828;DHT22;5467;59.334;13.512;2022-11-15T15:59:14;5.60;99.90
10828;DHT22;5467;59.334;13.512;2022-11-15T16:01:41;5.60;99.90
10828;DHT22;5467;59.334;13.512;2022-11-15T16:04:08;5.70;99.90
10828;DHT22;5467;59.334;13.512;2022-11-15T16:06:37;5.70;99.90
10828;DHT22;5467;59.334;13.512;2022-11-15T16:09:06;5.70;99.90
10828;DHT22;5467;59.334;13.512;2022-11-15T16:11:33;5.70;99.90
10828;DHT22;5467;59.334;13.512;2022-11-15T16:14:00;5.70;99.90
10828;DHT22;5467;59.334;13.512;2022-11-15T16:16:27;5.60;99.90
10828;DHT22;5467;59.334;13.512;2022-11-15T16:18:54;5.70;99.90
10828;DHT22;5467;59.334;13.512;2022-11-15T16:21:21;5.70;99.90
10828;DHT22;5467;59.334;13.512;2022-11-15T16:23:48;5.70;99.90
10828;DHT22;5467;59.334;13.512;2022-11-15T16:26:20;5.70;99.90
10828;DHT22;5467;59.334;13.512;2022-11-15T16:28:48;5.70;99.90